sensor_id;sensor_type;location;lat;lon;timestamp;temperature;humidity
41882;DHT22;27562;47.524;12.404;2023-11-19T00:02:08;1.90;99.90
41882;DHT22;27562;47.524;12.404;2023-11-19T00:04:37;1.90;99.90
41882;DHT22;27562;47.524;12.404;2023-11-19T00:07:06;2.00;99.90
41882;DHT22;27562;47.524;12.404;2023-11-19T00:09:36;2.00;99.90
41882;DHT22;27562;47.524;12.404;2023-11-19T00:12:04;2.00;99.90
41882;DHT22;27562;47.524;12.404;2023-11-19T00:14:30;2.00;99.90
41882;DHT22;27562;47.524;12.404;2023-11-19T00:16:56;2.00;99.90
41882;DHT22;27562;47.524;12.404;2023-11-19T00:19:21;1.90;99.90
41882;DHT22;27562;47.524;12.404;2023-11-19T00:21:47;1.90;99.90
41882;DHT22;27562;47.524;12.404;2023-11-19T00:24:13;1.90;99.90
41882;DHT22;27562;47.524;12.404;2023-11-19T00:26:42;1.90;99.90
41882;DHT22;27562;47.524;12.404;2023-11-19T00:29:07;2.00;99.90
41882;DHT22;27562;47.524;12.404;2023-11-19T00:31:33;2.00;99.90
41882;DHT22;27562;47.524;12.404;2023-11-19T00:33:59;2.00;99.90
41882;DHT22;27562;47.524;12.404;2023-11-19T00:36:24;2.00;99.90
41882;DHT22;27562;47.524;12.404;2023-11-19T00:38:51;2.00;99.90
41882;DHT22;27562;47.524;12.404;2023-11-19T00:41:18;2.00;99.90
41882;DHT22;27562;47.524;12.404;2023-11-19T00:43:44;2.00;99.90
41882;DHT22;27562;47.524;12.404;2023-11-19T00:46:10;2.00;99.90
41882;DHT22;27562;47.524;12.404;2023-11-19T00:48:39;2.00;99.90
41882;DHT22;27562;47.524;12.404;2023-11-19T00:51:05;2.00;99.90
41882;DHT22;27562;47.524;12.404;2023-11-19T00:53:31;2.00;99.90
41882;DHT22;27562;47.524;12.404;2023-11-19T00:55:57;2.00;99.90
41882;DHT22;27562;47.524;12.404;2023-11-19T00:58:23;2.00;99.90
41882;DHT22;27562;47.524;12.404;2023-11-19T01:00:49;2.00;99.90
41882;DHT22;27562;47.524;12.404;2023-11-19T01:03:15;2.10;99.90
41882;DHT22;27562;47.524;12.404;2023-11-19T01:05:41;2.00;99.90
41882;DHT22;27562;47.524;12.404;2023-11-19T01:08:07;2.00;99.90
41882;DHT22;27562;47.524;12.404;2023-11-19T01:10:33;2.00;99.90
41882;DHT22;27562;47.524;12.404;2023-11-19T01:12:59;1.90;99.90
41882;DHT22;27562;47.524;12.404;2023-11-19T01:15:25;1.90;99.90
41882;DHT22;27562;47.524;12.404;2023-11-19T01:17:52;1.80;99.90
41882;DHT22;27562;47.524;12.404;2023-11-19T01:20:17;1.80;99.90
41882;DHT22;27562;47.524;12.404;2023-11-19T01:22:43;1.80;99.90
41882;DHT22;27562;47.524;12.404;2023-11-19T01:25:10;1.80;99.90
41882;DHT22;27562;47.524;12.404;2023-11-19T01:27:35;1.80;99.90
41882;DHT22;27562;47.524;12.404;2023-11-19T01:30:02;1.80;99.90
41882;DHT22;27562;47.524;12.404;2023-11-19T01:32:35;1.80;99.90
41882;DHT22;27562;47.524;12.404;2023-11-19T01:35:02;1.70;99.90
41882;DHT22;27562;47.524;12.404;2023-11-19T01:37:29;1.70;99.90
41882;DHT22;27562;47.524;12.404;2023-11-19T01:39:55;1.70;99.90
41882;DHT22;27562;47.524;12.404;2023-11-19T01:42:20;1.80;99.90
41882;DHT22;27562;47.524;12.404;2023-11-19T01:44:59;1.70;99.90
41882;DHT22;27562;47.524;12.404;2023-11-19T01:47:28;1.80;99.90
41882;DHT22;27562;47.524;12.404;2023-11-19T01:49:56;1.80;99.90
41882;DHT22;27562;47.524;12.404;2023-11-19T01:52:22;1.80;99.90
41882;DHT22;27562;47.524;12.404;2023-11-19T01:54:52;1.70;99.90
41882;DHT22;27562;47.524;12.404;2023-11-19T01:57:18;1.80;99.90
41882;DHT22;27562;47.524;12.404;2023-11-19T01:59:45;1.80;99.90
41882;DHT22;27562;47.524;12.404;2023-11-19T02:02:11;1.80;99.90
41882;DHT22;27562;47.524;12.404;2023-11-19T02:04:38;1.80;99.90
41882;DHT22;27562;47.524;12.404;2023-11-19T02:07:04;1.80;99.90
41882;DHT22;27562;47.524;12.404;2023-11-19T02:09:30;1.90;99.90
41882;DHT22;27562;47.524;12.404;2023-11-19T02:11:56;1.90;99.90
41882;DHT22;27562;47.524;12.404;2023-11-19T02:14:25;1.90;99.90
41882;DHT22;27562;47.524;12.404;2023-11-19T02:16:52;1.90;99.90
41882;DHT22;27562;47.524;12.404;2023-11-19T02:19:21;1.90;99.90
41882;DHT22;27562;47.524;12.404;2023-11-19T02:21:46;1.90;99.90
41882;DHT22;27562;47.524;12.404;2023-11-19T02:24:14;1.90;99.90
41882;DHT22;27562;47.524;12.404;2023-11-19T02:27:02;1.90;99.90
41882;DHT22;27562;47.524;12.404;2023-11-19T02:29:33;1.90;99.90
41882;DHT22;27562;47.524;12.404;2023-11-19T02:32:00;1.90;99.90
41882;DHT22;27562;47.524;12.404;2023-11-19T02:34:28;1.90;99.90
41882;DHT22;27562;47.524;12.404;2023-11-19T02:36:54;1.90;99.90
41882;DHT22;27562;47.524;12.404;2023-11-19T02:39:20;2.00;99.90
41882;DHT22;27562;47.524;12.404;2023-11-19T02:41:47;2.00;99.90
41882;DHT22;27562;47.524;12.404;2023-11-19T02:44:16;2.00;99.90
41882;DHT22;27562;47.524;12.404;2023-11-19T02:46:42;2.10;99.90
41882;DHT22;27562;47.524;12.404;2023-11-19T02:49:07;2.10;99.90
41882;DHT22;27562;47.524;12.404;2023-11-19T02:51:33;2.10;99.90
41882;DHT22;27562;47.524;12.404;2023-11-19T02:54:00;2.10;99.90
41882;DHT22;27562;47.524;12.404;2023-11-19T02:56:26;2.10;99.90
41882;DHT22;27562;47.524;12.404;2023-11-19T02:58:52;2.10;99.90
41882;DHT22;27562;47.524;12.404;2023-11-19T03:01:27;2.10;99.90
41882;DHT22;27562;47.524;12.404;2023-11-19T03:03:56;2.20;99.90
41882;DHT22;27562;47.524;12.404;2023-11-19T03:06:23;2.20;99.90
41882;DHT22;27562;47.524;12.404;2023-11-19T03:08:51;2.20;99.90
41882;DHT22;27562;47.524;12.404;2023-11-19T03:11:16;2.20;99.90
41882;DHT22;27562;47.524;12.404;2023-11-19T03:13:42;2.20;99.90
41882;DHT22;27562;47.524;12.404;2023-11-19T03:16:08;2.20;99.90
41882;DHT22;27562;47.524;12.404;2023-11-19T03:18:33;2.20;99.90
41882;DHT22;27562;47.524;12.404;2023-11-19T03:20:59;2.20;99.90
41882;DHT22;27562;47.524;12.404;2023-11-19T03:23:25;2.20;99.90
41882;DHT22;27562;47.524;12.404;2023-11-19T03:25:54;2.20;99.90
41882;DHT22;27562;47.524;12.404;2023-11-19T03:28:19;2.20;99.90
41882;DHT22;27562;47.524;12.404;2023-11-19T03:30:45;2.20;99.90
41882;DHT22;27562;47.524;12.404;2023-11-19T03:33:11;2.20;99.90
41882;DHT22;27562;47.524;12.404;2023-11-19T03:35:36;2.20;99.90
41882;DHT22;27562;47.524;12.404;2023-11-19T03:38:02;2.30;99.90
41882;DHT22;27562;47.524;12.404;2023-11-19T03:40:28;2.30;99.90
41882;DHT22;27562;47.524;12.404;2023-11-19T03:42:56;2.30;99.90
41882;DHT22;27562;47.524;12.404;2023-11-19T03:45:23;2.30;99.90
41882;DHT22;27562;47.524;12.404;2023-11-19T03:47:50;2.20;99.90
41882;DHT22;27562;47.524;12.404;2023-11-19T03:50:16;2.20;99.90
41882;DHT22;27562;47.524;12.404;2023-11-19T03:52:41;2.20;99.90
41882;DHT22;27562;47.524;12.404;2023-11-19T03:55:07;2.20;99.90
41882;DHT22;27562;47.524;12.404;2023-11-19T03:57:34;2.20;99.90
41882;DHT22;27562;47.524;12.404;2023-11-19T04:00:01;2.20;99.90
41882;DHT22;27562;47.524;12.404;2023-11-19T04:02:33;2.10;99.90
41882;DHT22;27562;47.524;12.404;2023-11-19T04:04:59;2.20;99.90
41882;DHT22;27562;47.524;12.404;2023-11-19T04:07:24;2.20;99.90
41882;DHT22;27562;47.524;12.404;2023-11-19T04:09:50;2.20;99.90
41882;DHT22;27562;47.524;12.404;2023-11-19T04:12:16;2.20;99.90
41882;DHT22;27562;47.524;12.404;2023-11-19T04:14:42;2.20;99.90
41882;DHT22;27562;47.524;12.404;2023-11-19T04:17:07;2.20;99.90
41882;DHT22;27562;47.524;12.404;2023-11-19T04:19:33;2.20;99.90
41882;DHT22;27562;47.524;12.404;2023-11-19T04:21:58;2.20;99.90
41882;DHT22;27562;47.524;12.404;2023-11-19T04:24:24;2.20;99.90
41882;DHT22;27562;47.524;12.404;2023-11-19T04:26:50;2.20;99.90
41882;DHT22;27562;47.524;12.404;2023-11-19T04:29:16;2.20;99.90
41882;DHT22;27562;47.524;12.404;2023-11-19T04:31:43;2.20;99.90
41882;DHT22;27562;47.524;12.404;2023-11-19T04:34:09;2.30;99.90
41882;DHT22;27562;47.524;12.404;2023-11-19T04:36:36;2.30;99.90
41882;DHT22;27562;47.524;12.404;2023-11-19T04:39:03;2.30;99.90
41882;DHT22;27562;47.524;12.404;2023-11-19T04:41:35;2.30;99.90
41882;DHT22;27562;47.524;12.404;2023-11-19T04:44:01;2.40;99.90
41882;DHT22;27562;47.524;12.404;2023-11-19T04:46:27;2.40;99.90
41882;DHT22;27562;47.524;12.404;2023-11-19T04:48:53;2.40;99.90
41882;DHT22;27562;47.524;12.404;2023-11-19T04:51:18;2.40;99.90
41882;DHT22;27562;47.524;12.404;2023-11-19T04:53:44;2.40;99.90
41882;DHT22;27562;47.524;12.404;2023-11-19T04:56:11;2.40;99.90
41882;DHT22;27562;47.524;12.404;2023-11-19T04:58:36;2.40;99.90
41882;DHT22;27562;47.524;12.404;2023-11-19T05:01:03;2.50;99.90
41882;DHT22;27562;47.524;12.404;2023-11-19T05:03:32;2.50;99.90
41882;DHT22;27562;47.524;12.404;2023-11-19T05:05:58;2.50;99.90
41882;DHT22;27562;47.524;12.404;2023-11-19T05:08:24;2.50;99.90
41882;DHT22;27562;47.524;12.404;2023-11-19T05:10:50;2.50;99.90
41882;DHT22;27562;47.524;12.404;2023-11-19T05:13:16;2.50;99.90
41882;DHT22;27562;47.524;12.404;2023-11-19T05:15:42;2.50;99.90
41882;DHT22;27562;47.524;12.404;2023-11-19T05:18:08;2.50;99.90
41882;DHT22;27562;47.524;12.404;2023-11-19T05:20:34;2.50;99.90
41882;DHT22;27562;47.524;12.404;2023-11-19T05:23:00;2.50;99.90
41882;DHT22;27562;47.524;12.404;2023-11-19T05:25:26;2.50;99.90
41882;DHT22;27562;47.524;12.404;2023-11-19T05:27:52;2.50;99.90
41882;DHT22;27562;47.524;12.404;2023-11-19T05:30:18;2.50;99.90
41882;DHT22;27562;47.524;12.404;2023-11-19T05:32:44;2.50;99.90
41882;DHT22;27562;47.524;12.404;2023-11-19T05:35:10;2.50;99.90
41882;DHT22;27562;47.524;12.404;2023-11-19T05:37:36;2.60;99.90
41882;DHT22;27562;47.524;12.404;2023-11-19T05:40:02;2.60;99.90
41882;DHT22;27562;47.524;12.404;2023-11-19T05:42:29;2.60;99.90
41882;DHT22;27562;47.524;12.404;2023-11-19T05:44:58;2.60;99.90
41882;DHT22;27562;47.524;12.404;2023-11-19T05:47:23;2.60;99.90
41882;DHT22;27562;47.524;12.404;2023-11-19T05:49:49;2.60;99.90
41882;DHT22;27562;47.524;12.404;2023-11-19T05:52:15;2.60;99.90
41882;DHT22;27562;47.524;12.404;2023-11-19T05:54:40;2.70;99.90
41882;DHT22;27562;47.524;12.404;2023-11-19T05:57:07;2.70;99.90
41882;DHT22;27562;47.524;12.404;2023-11-19T05:59:36;2.70;99.90
41882;DHT22;27562;47.524;12.404;2023-11-19T06:02:02;2.70;99.90
41882;DHT22;27562;47.524;12.404;2023-11-19T06:04:28;2.70;99.90
41882;DHT22;27562;47.524;12.404;2023-11-19T06:06:54;2.70;99.90
41882;DHT22;27562;47.524;12.404;2023-11-19T06:09:22;2.70;99.90
41882;DHT22;27562;47.524;12.404;2023-11-19T06:11:51;2.70;99.90
41882;DHT22;27562;47.524;12.404;2023-11-19T06:14:18;2.70;99.90
41882;DHT22;27562;47.524;12.404;2023-11-19T06:16:44;2.70;99.90
41882;DHT22;27562;47.524;12.404;2023-11-19T06:19:10;2.70;99.90
41882;DHT22;27562;47.524;12.404;2023-11-19T06:21:37;2.70;99.90
41882;DHT22;27562;47.524;12.404;2023-11-19T06:24:02;2.70;99.90
41882;DHT22;27562;47.524;12.404;2023-11-19T06:26:28;2.70;99.90
41882;DHT22;27562;47.524;12.404;2023-11-19T06:28:54;2.80;99.90
41882;DHT22;27562;47.524;12.404;2023-11-19T06:31:20;2.80;99.90
41882;DHT22;27562;47.524;12.404;2023-11-19T06:33:46;2.80;99.90
41882;DHT22;27562;47.524;12.404;2023-11-19T06:36:14;2.70;99.90
41882;DHT22;27562;47.524;12.404;2023-11-19T06:38:42;2.70;99.90
41882;DHT22;27562;47.524;12.404;2023-11-19T06:41:08;2.80;99.90
41882;DHT22;27562;47.524;12.404;2023-11-19T06:43:35;2.70;99.90
41882;DHT22;27562;47.524;12.404;2023-11-19T06:46:01;2.80;99.90
41882;DHT22;27562;47.524;12.404;2023-11-19T06:48:27;2.80;99.90
41882;DHT22;27562;47.524;12.404;2023-11-19T06:50:53;2.80;99.90
41882;DHT22;27562;47.524;12.404;2023-11-19T06:53:19;2.80;99.90
41882;DHT22;27562;47.524;12.404;2023-11-19T06:55:44;2.80;99.90
41882;DHT22;27562;47.524;12.404;2023-11-19T06:58:11;2.90;99.90
41882;DHT22;27562;47.524;12.404;2023-11-19T07:00:37;2.90;99.90
41882;DHT22;27562;47.524;12.404;2023-11-19T07:03:03;2.90;99.90
41882;DHT22;27562;47.524;12.404;2023-11-19T07:05:29;2.90;99.90
41882;DHT22;27562;47.524;12.404;2023-11-19T07:07:55;3.00;99.90
41882;DHT22;27562;47.524;12.404;2023-11-19T07:10:21;2.90;99.90
41882;DHT22;27562;47.524;12.404;2023-11-19T07:12:47;3.00;99.90
41882;DHT22;27562;47.524;12.404;2023-11-19T07:15:13;3.00;99.90
41882;DHT22;27562;47.524;12.404;2023-11-19T07:17:39;3.00;99.90
41882;DHT22;27562;47.524;12.404;2023-11-19T07:20:09;3.00;99.90
41882;DHT22;27562;47.524;12.404;2023-11-19T07:22:39;3.00;99.90
41882;DHT22;27562;47.524;12.404;2023-11-19T07:25:04;3.10;99.90
41882;DHT22;27562;47.524;12.404;2023-11-19T07:27:30;3.10;99.90
41882;DHT22;27562;47.524;12.404;2023-11-19T07:29:56;3.10;99.90
41882;DHT22;27562;47.524;12.404;2023-11-19T07:32:21;3.20;99.90
41882;DHT22;27562;47.524;12.404;2023-11-19T07:34:47;3.20;99.90
41882;DHT22;27562;47.524;12.404;2023-11-19T07:37:13;3.20;99.90
41882;DHT22;27562;47.524;12.404;2023-11-19T07:39:38;3.20;99.90
41882;DHT22;27562;47.524;12.404;2023-11-19T07:42:06;3.30;99.90
41882;DHT22;27562;47.524;12.404;2023-11-19T07:44:32;3.30;99.90
41882;DHT22;27562;47.524;12.404;2023-11-19T07:46:57;3.30;99.90
41882;DHT22;27562;47.524;12.404;2023-11-19T07:49:23;3.30;99.90
41882;DHT22;27562;47.524;12.404;2023-11-19T07:51:49;3.40;99.90
41882;DHT22;27562;47.524;12.404;2023-11-19T07:54:15;3.40;99.90
41882;DHT22;27562;47.524;12.404;2023-11-19T07:56:40;3.40;99.90
41882;DHT22;27562;47.524;12.404;2023-11-19T07:59:06;3.40;99.90
41882;DHT22;27562;47.524;12.404;2023-11-19T08:01:32;3.50;99.90
41882;DHT22;27562;47.524;12.404;2023-11-19T08:03:58;3.40;99.90
41882;DHT22;27562;47.524;12.404;2023-11-19T08:06:24;3.50;99.90
41882;DHT22;27562;47.524;12.404;2023-11-19T08:08:50;3.50;99.90
41882;DHT22;27562;47.524;12.404;2023-11-19T08:11:17;3.50;99.90
41882;DHT22;27562;47.524;12.404;2023-11-19T08:13:44;3.50;99.90
41882;DHT22;27562;47.524;12.404;2023-11-19T08:16:09;3.50;99.90
41882;DHT22;27562;47.524;12.404;2023-11-19T08:18:36;3.60;99.90
41882;DHT22;27562;47.524;12.404;2023-11-19T08:21:01;3.60;99.90
41882;DHT22;27562;47.524;12.404;2023-11-19T08:23:30;3.60;99.90
41882;DHT22;27562;47.524;12.404;2023-11-19T08:25:55;3.60;99.90
41882;DHT22;27562;47.524;12.404;2023-11-19T08:28:21;3.60;99.90
41882;DHT22;27562;47.524;12.404;2023-11-19T08:30:47;3.60;99.90
41882;DHT22;27562;47.524;12.404;2023-11-19T08:33:12;3.70;99.90
41882;DHT22;27562;47.524;12.404;2023-11-19T08:35:38;3.70;99.90
41882;DHT22;27562;47.524;12.404;2023-11-19T08:38:04;3.70;99.90
41882;DHT22;27562;47.524;12.404;2023-11-19T08:40:29;3.70;99.90
41882;DHT22;27562;47.524;12.404;2023-11-19T08:42:56;3.70;99.90
41882;DHT22;27562;47.524;12.404;2023-11-19T08:45:22;3.80;99.90
41882;DHT22;27562;47.524;12.404;2023-11-19T08:47:47;3.80;99.90
41882;DHT22;27562;47.524;12.404;2023-11-19T08:50:13;3.80;99.90
41882;DHT22;27562;47.524;12.404;2023-11-19T08:52:38;3.80;99.90
41882;DHT22;27562;47.524;12.404;2023-11-19T08:55:05;3.80;99.90
41882;DHT22;27562;47.524;12.404;2023-11-19T08:57:31;3.80;99.90
41882;DHT22;27562;47.524;12.404;2023-11-19T08:59:58;3.90;99.90
41882;DHT22;27562;47.524;12.404;2023-11-19T09:02:23;3.90;99.90
41882;DHT22;27562;47.524;12.404;2023-11-19T09:04:49;3.90;99.90
41882;DHT22;27562;47.524;12.404;2023-11-19T09:07:15;3.90;99.90
41882;DHT22;27562;47.524;12.404;2023-11-19T09:09:40;4.00;99.90
41882;DHT22;27562;47.524;12.404;2023-11-19T09:12:06;4.00;99.90
41882;DHT22;27562;47.524;12.404;2023-11-19T09:14:32;4.00;99.90
41882;DHT22;27562;47.524;12.404;2023-11-19T09:16:58;4.00;99.90
41882;DHT22;27562;47.524;12.404;2023-11-19T09:19:25;4.00;99.90
41882;DHT22;27562;47.524;12.404;2023-11-19T09:21:52;4.10;99.90
41882;DHT22;27562;47.524;12.404;2023-11-19T09:24:18;4.10;99.90
41882;DHT22;27562;47.524;12.404;2023-11-19T09:26:44;4.10;99.90
41882;DHT22;27562;47.524;12.404;2023-11-19T09:29:10;4.20;99.90
41882;DHT22;27562;47.524;12.404;2023-11-19T09:31:38;4.20;99.90
41882;DHT22;27562;47.524;12.404;2023-11-19T09:34:04;4.20;99.90
41882;DHT22;27562;47.524;12.404;2023-11-19T09:36:30;4.20;99.90
41882;DHT22;27562;47.524;12.404;2023-11-19T09:38:56;4.30;99.90
41882;DHT22;27562;47.524;12.404;2023-11-19T09:41:23;4.30;99.90
41882;DHT22;27562;47.524;12.404;2023-11-19T09:43:50;4.40;99.90
41882;DHT22;27562;47.524;12.404;2023-11-19T09:46:16;4.40;99.90
41882;DHT22;27562;47.524;12.404;2023-11-19T09:48:42;4.50;99.90
41882;DHT22;27562;47.524;12.404;2023-11-19T09:51:10;4.50;99.90
41882;DHT22;27562;47.524;12.404;2023-11-19T09:53:36;4.60;99.90
41882;DHT22;27562;47.524;12.404;2023-11-19T09:56:06;4.60;99.90
41882;DHT22;27562;47.524;12.404;2023-11-19T09:58:33;4.70;99.90
41882;DHT22;27562;47.524;12.404;2023-11-19T10:01:00;4.80;99.90
41882;DHT22;27562;47.524;12.404;2023-11-19T10:03:35;4.90;99.90
41882;DHT22;27562;47.524;12.404;2023-11-19T10:06:04;4.90;99.90
41882;DHT22;27562;47.524;12.404;2023-11-19T10:08:30;5.10;99.90
41882;DHT22;27562;47.524;12.404;2023-11-19T10:10:55;5.10;99.90
41882;DHT22;27562;47.524;12.404;2023-11-19T10:13:26;5.10;99.90
41882;DHT22;27562;47.524;12.404;2023-11-19T10:15:53;5.20;99.90
41882;DHT22;27562;47.524;12.404;2023-11-19T10:18:24;5.20;99.90
41882;DHT22;27562;47.524;12.404;2023-11-19T10:20:49;5.20;99.90
41882;DHT22;27562;47.524;12.404;2023-11-19T10:23:15;5.20;99.90
41882;DHT22;27562;47.524;12.404;2023-11-19T10:25:40;5.20;99.90
41882;DHT22;27562;47.524;12.404;2023-11-19T10:28:06;5.30;99.90
41882;DHT22;27562;47.524;12.404;2023-11-19T10:30:32;5.30;99.90
41882;DHT22;27562;47.524;12.404;2023-11-19T10:35:36;5.50;99.90
41882;DHT22;27562;47.524;12.404;2023-11-19T10:38:14;5.50;99.90
41882;DHT22;27562;47.524;12.404;2023-11-19T10:40:43;5.60;99.90
41882;DHT22;27562;47.524;12.404;2023-11-19T10:43:09;5.70;99.90
41882;DHT22;27562;47.524;12.404;2023-11-19T10:45:36;5.80;99.90
41882;DHT22;27562;47.524;12.404;2023-11-19T10:48:04;5.80;99.90
41882;DHT22;27562;47.524;12.404;2023-11-19T10:50:33;5.80;99.90
41882;DHT22;27562;47.524;12.404;2023-11-19T10:52:59;5.80;99.90
41882;DHT22;27562;47.524;12.404;2023-11-19T10:55:36;5.80;99.90
41882;DHT22;27562;47.524;12.404;2023-11-19T10:58:06;5.90;99.90
41882;DHT22;27562;47.524;12.404;2023-11-19T11:00:51;5.90;99.90
41882;DHT22;27562;47.524;12.404;2023-11-19T11:03:18;5.90;99.90
41882;DHT22;27562;47.524;12.404;2023-11-19T11:05:48;5.90;99.90
41882;DHT22;27562;47.524;12.404;2023-11-19T11:08:14;5.90;99.90
41882;DHT22;27562;47.524;12.404;2023-11-19T11:10:44;6.00;99.90
41882;DHT22;27562;47.524;12.404;2023-11-19T11:13:11;6.00;99.90
41882;DHT22;27562;47.524;12.404;2023-11-19T11:15:39;6.10;99.90
41882;DHT22;27562;47.524;12.404;2023-11-19T11:18:08;6.10;99.90
41882;DHT22;27562;47.524;12.404;2023-11-19T11:20:34;6.10;99.90
41882;DHT22;27562;47.524;12.404;2023-11-19T11:29:01;6.20;99.90
41882;DHT22;27562;47.524;12.404;2023-11-19T11:34:50;6.40;99.90
41882;DHT22;27562;47.524;12.404;2023-11-19T11:37:25;6.40;99.90
41882;DHT22;27562;47.524;12.404;2023-11-19T11:39:52;6.40;99.90
41882;DHT22;27562;47.524;12.404;2023-11-19T11:50:18;6.80;99.90
41882;DHT22;27562;47.524;12.404;2023-11-19T11:55:34;6.90;99.90
41882;DHT22;27562;47.524;12.404;2023-11-19T11:58:00;6.90;99.90
41882;DHT22;27562;47.524;12.404;2023-11-19T12:00:33;6.90;99.90
41882;DHT22;27562;47.524;12.404;2023-11-19T12:03:04;6.90;99.90
41882;DHT22;27562;47.524;12.404;2023-11-19T12:05:30;7.00;99.90
41882;DHT22;27562;47.524;12.404;2023-11-19T12:08:00;7.00;99.90
41882;DHT22;27562;47.524;12.404;2023-11-19T12:10:29;7.00;99.90
41882;DHT22;27562;47.524;12.404;2023-11-19T12:13:01;7.10;99.90
41882;DHT22;27562;47.524;12.404;2023-11-19T12:15:27;7.20;99.90
41882;DHT22;27562;47.524;12.404;2023-11-19T12:17:56;7.30;99.90
41882;DHT22;27562;47.524;12.404;2023-11-19T12:20:26;7.40;99.90
41882;DHT22;27562;47.524;12.404;2023-11-19T12:22:53;7.40;99.90
41882;DHT22;27562;47.524;12.404;2023-11-19T12:25:19;7.50;99.90
41882;DHT22;27562;47.524;12.404;2023-11-19T12:27:50;7.60;99.90
41882;DHT22;27562;47.524;12.404;2023-11-19T12:30:23;7.70;99.90
41882;DHT22;27562;47.524;12.404;2023-11-19T12:32:50;7.70;99.90
41882;DHT22;27562;47.524;12.404;2023-11-19T12:35:16;7.80;99.90
41882;DHT22;27562;47.524;12.404;2023-11-19T12:37:43;7.80;99.90
41882;DHT22;27562;47.524;12.404;2023-11-19T12:40:16;7.80;99.90
41882;DHT22;27562;47.524;12.404;2023-11-19T12:42:44;7.80;99.90
41882;DHT22;27562;47.524;12.404;2023-11-19T12:45:10;7.90;99.90
41882;DHT22;27562;47.524;12.404;2023-11-19T12:47:43;7.90;99.90
41882;DHT22;27562;47.524;12.404;2023-11-19T12:50:09;7.90;99.90
41882;DHT22;27562;47.524;12.404;2023-11-19T12:52:36;7.90;99.90
41882;DHT22;27562;47.524;12.404;2023-11-19T12:55:04;7.80;99.90
41882;DHT22;27562;47.524;12.404;2023-11-19T12:57:41;7.80;99.90
41882;DHT22;27562;47.524;12.404;2023-11-19T13:00:18;7.80;99.90
41882;DHT22;27562;47.524;12.404;2023-11-19T13:02:51;7.80;99.90
41882;DHT22;27562;47.524;12.404;2023-11-19T13:05:25;7.90;99.90
41882;DHT22;27562;47.524;12.404;2023-11-19T13:08:05;7.90;99.90
41882;DHT22;27562;47.524;12.404;2023-11-19T13:10:32;7.90;99.90
41882;DHT22;27562;47.524;12.404;2023-11-19T13:13:06;7.90;99.90
41882;DHT22;27562;47.524;12.404;2023-11-19T13:15:33;8.00;99.90
41882;DHT22;27562;47.524;12.404;2023-11-19T13:17:59;8.00;99.90
41882;DHT22;27562;47.524;12.404;2023-11-19T13:20:25;8.00;99.90
41882;DHT22;27562;47.524;12.404;2023-11-19T13:23:02;8.00;99.90
41882;DHT22;27562;47.524;12.404;2023-11-19T13:25:28;8.00;99.90
41882;DHT22;27562;47.524;12.404;2023-11-19T13:27:55;8.20;99.90
41882;DHT22;27562;47.524;12.404;2023-11-19T13:30:22;8.30;99.90
41882;DHT22;27562;47.524;12.404;2023-11-19T13:32:48;8.30;99.90
41882;DHT22;27562;47.524;12.404;2023-11-19T13:35:14;8.30;99.90
41882;DHT22;27562;47.524;12.404;2023-11-19T13:37:40;8.40;99.90
41882;DHT22;27562;47.524;12.404;2023-11-19T13:40:07;8.40;99.90
41882;DHT22;27562;47.524;12.404;2023-11-19T13:42:38;8.40;99.90
41882;DHT22;27562;47.524;12.404;2023-11-19T13:45:14;8.30;99.90
41882;DHT22;27562;47.524;12.404;2023-11-19T13:47:41;8.30;99.90
41882;DHT22;27562;47.524;12.404;2023-11-19T13:50:13;8.30;99.90
41882;DHT22;27562;47.524;12.404;2023-11-19T13:52:39;8.30;99.90
41882;DHT22;27562;47.524;12.404;2023-11-19T13:55:09;8.30;99.90
41882;DHT22;27562;47.524;12.404;2023-11-19T13:57:36;8.30;99.90
41882;DHT22;27562;47.524;12.404;2023-11-19T14:00:07;8.30;99.90
41882;DHT22;27562;47.524;12.404;2023-11-19T14:02:40;8.30;99.90
41882;DHT22;27562;47.524;12.404;2023-11-19T14:05:06;8.30;99.90
41882;DHT22;27562;47.524;12.404;2023-11-19T14:07:32;8.30;99.90
41882;DHT22;27562;47.524;12.404;2023-11-19T14:09:58;8.20;99.90
41882;DHT22;27562;47.524;12.404;2023-11-19T14:12:24;8.20;99.90
41882;DHT22;27562;47.524;12.404;2023-11-19T14:14:49;8.10;99.90
41882;DHT22;27562;47.524;12.404;2023-11-19T14:17:15;8.20;99.90
41882;DHT22;27562;47.524;12.404;2023-11-19T14:19:44;8.20;99.90
41882;DHT22;27562;47.524;12.404;2023-11-19T14:22:10;8.20;99.90
41882;DHT22;27562;47.524;12.404;2023-11-19T14:24:35;8.10;99.90
41882;DHT22;27562;47.524;12.404;2023-11-19T14:27:01;8.10;99.90
41882;DHT22;27562;47.524;12.404;2023-11-19T14:29:28;8.10;99.90
41882;DHT22;27562;47.524;12.404;2023-11-19T14:31:56;8.20;99.90
41882;DHT22;27562;47.524;12.404;2023-11-19T14:34:22;8.10;99.90
41882;DHT22;27562;47.524;12.404;2023-11-19T14:36:48;8.00;99.90
41882;DHT22;27562;47.524;12.404;2023-11-19T14:39:14;8.00;99.90
41882;DHT22;27562;47.524;12.404;2023-11-19T14:41:40;8.00;99.90
41882;DHT22;27562;47.524;12.404;2023-11-19T14:44:06;8.00;99.90
41882;DHT22;27562;47.524;12.404;2023-11-19T14:46:31;8.00;99.90
41882;DHT22;27562;47.524;12.404;2023-11-19T14:48:57;8.00;99.90
41882;DHT22;27562;47.524;12.404;2023-11-19T14:51:24;7.90;99.90
41882;DHT22;27562;47.524;12.404;2023-11-19T14:53:49;7.80;99.90
41882;DHT22;27562;47.524;12.404;2023-11-19T14:56:15;7.70;99.90
41882;DHT22;27562;47.524;12.404;2023-11-19T14:58:41;7.60;99.90
41882;DHT22;27562;47.524;12.404;2023-11-19T15:01:11;7.60;99.90
41882;DHT22;27562;47.524;12.404;2023-11-19T15:03:39;7.60;99.90
41882;DHT22;27562;47.524;12.404;2023-11-19T15:06:05;7.50;99.90
41882;DHT22;27562;47.524;12.404;2023-11-19T15:08:32;7.50;99.90
41882;DHT22;27562;47.524;12.404;2023-11-19T15:10:58;7.50;99.90
41882;DHT22;27562;47.524;12.404;2023-11-19T15:13:25;7.40;99.90
41882;DHT22;27562;47.524;12.404;2023-11-19T15:15:50;7.40;99.90
41882;DHT22;27562;47.524;12.404;2023-11-19T15:18:18;7.40;99.90
41882;DHT22;27562;47.524;12.404;2023-11-19T15:20:44;7.30;99.90
41882;DHT22;27562;47.524;12.404;2023-11-19T15:23:13;7.30;99.90
41882;DHT22;27562;47.524;12.404;2023-11-19T15:25:39;7.30;99.90
41882;DHT22;27562;47.524;12.404;2023-11-19T15:28:04;7.30;99.90
41882;DHT22;27562;47.524;12.404;2023-11-19T15:30:30;7.30;99.90
41882;DHT22;27562;47.524;12.404;2023-11-19T15:32:56;7.20;99.90
41882;DHT22;27562;47.524;12.404;2023-11-19T15:35:23;7.20;99.90
41882;DHT22;27562;47.524;12.404;2023-11-19T15:37:48;7.20;99.90
41882;DHT22;27562;47.524;12.404;2023-11-19T15:40:14;7.20;99.90
41882;DHT22;27562;47.524;12.404;2023-11-19T15:42:41;7.20;99.90
41882;DHT22;27562;47.524;12.404;2023-11-19T15:45:09;7.20;99.90
41882;DHT22;27562;47.524;12.404;2023-11-19T15:47:35;7.20;99.90
41882;DHT22;27562;47.524;12.404;2023-11-19T15:50:02;7.10;99.90
41882;DHT22;27562;47.524;12.404;2023-11-19T15:52:29;7.10;99.90